sensor_id;sensor_type;location;lat;lon;timestamp;temperature;humidity
54516;DHT22;40422;45.892;4.738;2023-11-21T04:02:24;9.10;99.90
54516;DHT22;40422;45.892;4.738;2023-11-21T04:04:51;9.10;99.90
54516;DHT22;40422;45.892;4.738;2023-11-21T04:07:17;9.10;99.90
54516;DHT22;40422;45.892;4.738;2023-11-21T04:09:43;9.20;99.90
54516;DHT22;40422;45.892;4.738;2023-11-21T04:12:08;9.10;99.90
54516;DHT22;40422;45.892;4.738;2023-11-21T04:14:35;9.20;99.90
54516;DHT22;40422;45.892;4.738;2023-11-21T04:17:00;9.20;99.90
54516;DHT22;40422;45.892;4.738;2023-11-21T04:19:26;9.20;99.90
54516;DHT22;40422;45.892;4.738;2023-11-21T04:21:51;9.20;99.90
54516;DHT22;40422;45.892;4.738;2023-11-21T04:24:17;9.20;99.90
54516;DHT22;40422;45.892;4.738;2023-11-21T04:26:44;9.20;99.90
54516;DHT22;40422;45.892;4.738;2023-11-21T04:29:09;9.20;99.90
54516;DHT22;40422;45.892;4.738;2023-11-21T04:31:35;9.20;99.90
54516;DHT22;40422;45.892;4.738;2023-11-21T04:34:00;9.20;99.90
54516;DHT22;40422;45.892;4.738;2023-11-21T04:36:26;9.20;99.90
54516;DHT22;40422;45.892;4.738;2023-11-21T04:38:52;9.20;99.90
54516;DHT22;40422;45.892;4.738;2023-11-21T04:41:17;9.30;99.90
54516;DHT22;40422;45.892;4.738;2023-11-21T04:43:43;9.30;99.90
54516;DHT22;40422;45.892;4.738;2023-11-21T04:46:09;9.30;99.90
54516;DHT22;40422;45.892;4.738;2023-11-21T04:48:34;9.30;99.90
54516;DHT22;40422;45.892;4.738;2023-11-21T04:51:00;9.30;99.90
54516;DHT22;40422;45.892;4.738;2023-11-21T04:53:26;9.20;99.90
54516;DHT22;40422;45.892;4.738;2023-11-21T04:55:51;9.30;99.90
54516;DHT22;40422;45.892;4.738;2023-11-21T04:58:17;9.30;99.90
54516;DHT22;40422;45.892;4.738;2023-11-21T05:00:43;9.40;99.90
54516;DHT22;40422;45.892;4.738;2023-11-21T05:03:09;9.40;99.90
54516;DHT22;40422;45.892;4.738;2023-11-21T05:05:35;9.40;99.90
54516;DHT22;40422;45.892;4.738;2023-11-21T05:08:00;9.40;99.90
54516;DHT22;40422;45.892;4.738;2023-11-21T05:10:27;9.40;99.90
54516;DHT22;40422;45.892;4.738;2023-11-21T05:12:52;9.40;99.90
54516;DHT22;40422;45.892;4.738;2023-11-21T05:15:18;9.40;99.90
54516;DHT22;40422;45.892;4.738;2023-11-21T05:17:44;9.40;99.90
54516;DHT22;40422;45.892;4.738;2023-11-21T05:20:11;9.40;99.90
54516;DHT22;40422;45.892;4.738;2023-11-21T05:22:37;9.40;99.90
54516;DHT22;40422;45.892;4.738;2023-11-21T05:25:03;9.40;99.90
54516;DHT22;40422;45.892;4.738;2023-11-21T05:27:30;9.50;99.90
54516;DHT22;40422;45.892;4.738;2023-11-21T05:29:57;9.40;99.90
54516;DHT22;40422;45.892;4.738;2023-11-21T05:32:25;9.40;99.90
54516;DHT22;40422;45.892;4.738;2023-11-21T05:34:52;9.40;99.90
54516;DHT22;40422;45.892;4.738;2023-11-21T05:37:17;9.40;99.90
54516;DHT22;40422;45.892;4.738;2023-11-21T05:39:43;9.40;99.90
54516;DHT22;40422;45.892;4.738;2023-11-21T05:42:09;9.40;99.90
54516;DHT22;40422;45.892;4.738;2023-11-21T05:44:36;9.40;99.90
54516;DHT22;40422;45.892;4.738;2023-11-21T05:47:02;9.40;99.90
54516;DHT22;40422;45.892;4.738;2023-11-21T05:49:29;9.40;99.90
54516;DHT22;40422;45.892;4.738;2023-11-21T05:51:55;9.30;99.90
54516;DHT22;40422;45.892;4.738;2023-11-21T05:54:21;9.40;99.90
54516;DHT22;40422;45.892;4.738;2023-11-21T05:56:48;9.40;99.90
54516;DHT22;40422;45.892;4.738;2023-11-21T05:59:14;9.40;99.90
54516;DHT22;40422;45.892;4.738;2023-11-21T06:01:40;9.40;99.90
54516;DHT22;40422;45.892;4.738;2023-11-21T06:04:06;9.40;99.90
54516;DHT22;40422;45.892;4.738;2023-11-21T06:06:33;9.40;99.90
54516;DHT22;40422;45.892;4.738;2023-11-21T06:08:59;9.40;99.90
54516;DHT22;40422;45.892;4.738;2023-11-21T06:11:25;9.40;99.90
54516;DHT22;40422;45.892;4.738;2023-11-21T06:13:51;9.30;99.90
54516;DHT22;40422;45.892;4.738;2023-11-21T06:16:18;9.40;99.90
54516;DHT22;40422;45.892;4.738;2023-11-21T06:18:45;9.40;99.90
54516;DHT22;40422;45.892;4.738;2023-11-21T06:21:11;9.40;99.90
54516;DHT22;40422;45.892;4.738;2023-11-21T06:23:37;9.40;99.90
54516;DHT22;40422;45.892;4.738;2023-11-21T06:26:03;9.40;99.90
54516;DHT22;40422;45.892;4.738;2023-11-21T06:28:30;9.30;99.90
54516;DHT22;40422;45.892;4.738;2023-11-21T06:30:56;9.30;99.90
54516;DHT22;40422;45.892;4.738;2023-11-21T06:33:23;9.30;99.90
54516;DHT22;40422;45.892;4.738;2023-11-21T06:35:52;9.30;99.90
54516;DHT22;40422;45.892;4.738;2023-11-21T06:38:18;9.30;99.90
54516;DHT22;40422;45.892;4.738;2023-11-21T06:40:45;9.40;99.90
54516;DHT22;40422;45.892;4.738;2023-11-21T06:43:11;9.30;99.90
54516;DHT22;40422;45.892;4.738;2023-11-21T06:45:36;9.30;99.90
54516;DHT22;40422;45.892;4.738;2023-11-21T06:48:02;9.30;99.90
54516;DHT22;40422;45.892;4.738;2023-11-21T06:50:28;9.30;99.90
54516;DHT22;40422;45.892;4.738;2023-11-21T06:52:53;9.30;99.90
54516;DHT22;40422;45.892;4.738;2023-11-21T06:55:19;9.30;99.90
54516;DHT22;40422;45.892;4.738;2023-11-21T06:57:47;9.30;99.90
54516;DHT22;40422;45.892;4.738;2023-11-21T07:00:15;9.40;99.90
54516;DHT22;40422;45.892;4.738;2023-11-21T07:02:43;9.40;99.90
54516;DHT22;40422;45.892;4.738;2023-11-21T07:05:09;9.30;99.90
54516;DHT22;40422;45.892;4.738;2023-11-21T07:07:35;9.40;99.90
54516;DHT22;40422;45.892;4.738;2023-11-21T07:10:03;9.40;99.90
54516;DHT22;40422;45.892;4.738;2023-11-21T07:12:31;9.40;99.90
54516;DHT22;40422;45.892;4.738;2023-11-21T07:14:58;9.40;99.90
54516;DHT22;40422;45.892;4.738;2023-11-21T07:17:23;9.40;99.90
54516;DHT22;40422;45.892;4.738;2023-11-21T07:19:49;9.40;99.90
54516;DHT22;40422;45.892;4.738;2023-11-21T07:22:16;9.30;99.90
54516;DHT22;40422;45.892;4.738;2023-11-21T07:24:49;9.30;99.90
54516;DHT22;40422;45.892;4.738;2023-11-21T07:27:17;9.30;99.90
54516;DHT22;40422;45.892;4.738;2023-11-21T07:29:43;9.30;99.90
54516;DHT22;40422;45.892;4.738;2023-11-21T07:32:08;9.30;99.90
54516;DHT22;40422;45.892;4.738;2023-11-21T07:34:35;9.30;99.90
54516;DHT22;40422;45.892;4.738;2023-11-21T07:37:01;9.30;99.90
54516;DHT22;40422;45.892;4.738;2023-11-21T07:39:28;9.40;99.90
54516;DHT22;40422;45.892;4.738;2023-11-21T07:41:53;9.40;99.90
54516;DHT22;40422;45.892;4.738;2023-11-21T07:44:19;9.50;99.90
54516;DHT22;40422;45.892;4.738;2023-11-21T07:46:45;9.50;99.90
54516;DHT22;40422;45.892;4.738;2023-11-21T07:49:11;9.50;99.90
54516;DHT22;40422;45.892;4.738;2023-11-21T07:51:40;9.60;99.90
54516;DHT22;40422;45.892;4.738;2023-11-21T07:54:05;9.60;99.90
54516;DHT22;40422;45.892;4.738;2023-11-21T07:56:31;9.70;99.90
54516;DHT22;40422;45.892;4.738;2023-11-21T07:58:57;9.70;99.90
54516;DHT22;40422;45.892;4.738;2023-11-21T08:01:22;9.70;99.90
54516;DHT22;40422;45.892;4.738;2023-11-21T08:03:48;9.80;99.90
54516;DHT22;40422;45.892;4.738;2023-11-21T08:06:17;9.80;99.90
54516;DHT22;40422;45.892;4.738;2023-11-21T08:08:42;9.80;99.90
54516;DHT22;40422;45.892;4.738;2023-11-21T08:11:09;9.90;99.90
54516;DHT22;40422;45.892;4.738;2023-11-21T08:13:36;9.90;99.90
54516;DHT22;40422;45.892;4.738;2023-11-21T08:16:02;10.00;99.90
54516;DHT22;40422;45.892;4.738;2023-11-21T08:18:30;10.00;99.90
54516;DHT22;40422;45.892;4.738;2023-11-21T08:20:56;10.00;99.90
54516;DHT22;40422;45.892;4.738;2023-11-21T08:23:22;10.00;99.90
54516;DHT22;40422;45.892;4.738;2023-11-21T08:25:51;10.10;99.90
54516;DHT22;40422;45.892;4.738;2023-11-21T08:28:17;10.10;99.90
54516;DHT22;40422;45.892;4.738;2023-11-21T08:30:43;10.10;99.90
54516;DHT22;40422;45.892;4.738;2023-11-21T08:33:09;10.20;99.90
54516;DHT22;40422;45.892;4.738;2023-11-21T08:35:37;10.30;99.90
54516;DHT22;40422;45.892;4.738;2023-11-21T08:38:03;10.30;99.90
54516;DHT22;40422;45.892;4.738;2023-11-21T08:40:29;10.30;99.90
54516;DHT22;40422;45.892;4.738;2023-11-21T08:42:54;10.30;99.90
54516;DHT22;40422;45.892;4.738;2023-11-21T08:45:21;10.40;99.90
54516;DHT22;40422;45.892;4.738;2023-11-21T08:47:47;10.40;99.90
54516;DHT22;40422;45.892;4.738;2023-11-21T08:50:13;10.40;99.90
54516;DHT22;40422;45.892;4.738;2023-11-21T08:52:40;10.40;99.90
54516;DHT22;40422;45.892;4.738;2023-11-21T08:55:07;10.50;99.90
54516;DHT22;40422;45.892;4.738;2023-11-21T08:57:38;10.50;99.90
54516;DHT22;40422;45.892;4.738;2023-11-21T09:00:04;10.50;99.90
54516;DHT22;40422;45.892;4.738;2023-11-21T09:02:35;10.50;99.90
54516;DHT22;40422;45.892;4.738;2023-11-21T09:05:05;10.60;99.90
54516;DHT22;40422;45.892;4.738;2023-11-21T09:07:31;10.50;99.90
54516;DHT22;40422;45.892;4.738;2023-11-21T09:09:56;10.50;99.90
54516;DHT22;40422;45.892;4.738;2023-11-21T09:12:22;10.50;99.90
54516;DHT22;40422;45.892;4.738;2023-11-21T09:14:50;10.50;99.90
54516;DHT22;40422;45.892;4.738;2023-11-21T09:17:16;10.50;99.90
54516;DHT22;40422;45.892;4.738;2023-11-21T09:19:42;10.50;99.90
54516;DHT22;40422;45.892;4.738;2023-11-21T09:22:10;10.50;99.90
54516;DHT22;40422;45.892;4.738;2023-11-21T09:24:36;10.60;99.90
54516;DHT22;40422;45.892;4.738;2023-11-21T09:27:03;10.60;99.90
54516;DHT22;40422;45.892;4.738;2023-11-21T09:29:30;10.60;99.90
54516;DHT22;40422;45.892;4.738;2023-11-21T09:31:56;10.60;99.90
54516;DHT22;40422;45.892;4.738;2023-11-21T09:34:25;10.70;99.90
54516;DHT22;40422;45.892;4.738;2023-11-21T09:36:51;10.80;99.90
54516;DHT22;40422;45.892;4.738;2023-11-21T09:39:17;10.80;99.90
54516;DHT22;40422;45.892;4.738;2023-11-21T09:41:49;10.80;99.90
54516;DHT22;40422;45.892;4.738;2023-11-21T09:44:18;10.90;99.90
54516;DHT22;40422;45.892;4.738;2023-11-21T09:46:47;11.00;99.90
54516;DHT22;40422;45.892;4.738;2023-11-21T09:49:18;11.00;99.90
54516;DHT22;40422;45.892;4.738;2023-11-21T09:51:48;11.10;99.90
54516;DHT22;40422;45.892;4.738;2023-11-21T09:54:15;11.10;99.90
54516;DHT22;40422;45.892;4.738;2023-11-21T09:56:42;11.10;99.90
54516;DHT22;40422;45.892;4.738;2023-11-21T09:59:12;11.10;99.90
54516;DHT22;40422;45.892;4.738;2023-11-21T10:01:38;11.20;99.90
54516;DHT22;40422;45.892;4.738;2023-11-21T10:04:06;11.30;99.90
54516;DHT22;40422;45.892;4.738;2023-11-21T10:06:40;11.40;99.90
54516;DHT22;40422;45.892;4.738;2023-11-21T10:09:12;11.50;99.90
54516;DHT22;40422;45.892;4.738;2023-11-21T10:11:43;11.50;99.90
54516;DHT22;40422;45.892;4.738;2023-11-21T10:14:12;11.60;99.90
54516;DHT22;40422;45.892;4.738;2023-11-21T10:16:40;11.60;99.90
54516;DHT22;40422;45.892;4.738;2023-11-21T10:19:10;11.60;99.90
54516;DHT22;40422;45.892;4.738;2023-11-21T10:21:37;11.50;99.90
54516;DHT22;40422;45.892;4.738;2023-11-21T10:24:03;11.50;99.90
54516;DHT22;40422;45.892;4.738;2023-11-21T10:26:29;11.50;99.90
54516;DHT22;40422;45.892;4.738;2023-11-21T10:28:57;11.40;99.90
54516;DHT22;40422;45.892;4.738;2023-11-21T10:31:24;11.30;99.90
54516;DHT22;40422;45.892;4.738;2023-11-21T10:33:51;11.20;99.90
54516;DHT22;40422;45.892;4.738;2023-11-21T10:36:27;11.10;99.90
54516;DHT22;40422;45.892;4.738;2023-11-21T10:38:54;11.10;99.90
54516;DHT22;40422;45.892;4.738;2023-11-21T10:41:20;11.00;99.90
54516;DHT22;40422;45.892;4.738;2023-11-21T10:43:46;11.00;99.90
54516;DHT22;40422;45.892;4.738;2023-11-21T10:46:13;10.90;99.90
54516;DHT22;40422;45.892;4.738;2023-11-21T10:48:41;11.00;99.90
54516;DHT22;40422;45.892;4.738;2023-11-21T10:51:08;11.00;99.90
54516;DHT22;40422;45.892;4.738;2023-11-21T10:53:40;11.20;99.90
54516;DHT22;40422;45.892;4.738;2023-11-21T10:56:08;11.30;99.90
54516;DHT22;40422;45.892;4.738;2023-11-21T10:58:43;11.50;99.90
54516;DHT22;40422;45.892;4.738;2023-11-21T11:01:09;11.50;99.90
54516;DHT22;40422;45.892;4.738;2023-11-21T11:03:37;11.50;99.90
54516;DHT22;40422;45.892;4.738;2023-11-21T11:06:06;11.50;99.90
54516;DHT22;40422;45.892;4.738;2023-11-21T11:08:42;11.50;99.90
54516;DHT22;40422;45.892;4.738;2023-11-21T11:11:09;11.70;99.90
54516;DHT22;40422;45.892;4.738;2023-11-21T11:13:35;11.70;99.90
54516;DHT22;40422;45.892;4.738;2023-11-21T11:16:04;11.70;99.90
54516;DHT22;40422;45.892;4.738;2023-11-21T11:18:33;11.80;99.90
54516;DHT22;40422;45.892;4.738;2023-11-21T11:21:07;11.80;99.90
54516;DHT22;40422;45.892;4.738;2023-11-21T11:26:48;11.80;99.90
54516;DHT22;40422;45.892;4.738;2023-11-21T11:34:53;11.90;99.90
54516;DHT22;40422;45.892;4.738;2023-11-21T11:37:22;12.00;99.90
54516;DHT22;40422;45.892;4.738;2023-11-21T11:39:49;11.90;99.90
54516;DHT22;40422;45.892;4.738;2023-11-21T11:42:16;12.00;99.90
54516;DHT22;40422;45.892;4.738;2023-11-21T11:47:15;12.10;99.90
54516;DHT22;40422;45.892;4.738;2023-11-21T11:52:44;12.10;99.90
54516;DHT22;40422;45.892;4.738;2023-11-21T11:55:17;12.00;99.90
54516;DHT22;40422;45.892;4.738;2023-11-21T11:57:45;12.00;99.90
54516;DHT22;40422;45.892;4.738;2023-11-21T12:02:53;11.90;99.90
54516;DHT22;40422;45.892;4.738;2023-11-21T12:05:23;12.00;99.90
54516;DHT22;40422;45.892;4.738;2023-11-21T12:07:52;12.00;99.90
54516;DHT22;40422;45.892;4.738;2023-11-21T12:10:22;12.00;99.90
54516;DHT22;40422;45.892;4.738;2023-11-21T12:12:59;12.10;99.90
54516;DHT22;40422;45.892;4.738;2023-11-21T12:15:25;12.10;99.90
54516;DHT22;40422;45.892;4.738;2023-11-21T12:17:52;12.10;99.90
54516;DHT22;40422;45.892;4.738;2023-11-21T12:20:19;12.20;99.90
54516;DHT22;40422;45.892;4.738;2023-11-21T12:22:48;12.10;99.90
54516;DHT22;40422;45.892;4.738;2023-11-21T12:25:20;12.10;99.90
54516;DHT22;40422;45.892;4.738;2023-11-21T12:27:48;12.00;99.90
54516;DHT22;40422;45.892;4.738;2023-11-21T12:30:18;11.90;99.90
54516;DHT22;40422;45.892;4.738;2023-11-21T12:32:44;11.90;99.90
54516;DHT22;40422;45.892;4.738;2023-11-21T12:35:13;11.80;99.90
54516;DHT22;40422;45.892;4.738;2023-11-21T12:37:40;11.80;99.90
54516;DHT22;40422;45.892;4.738;2023-11-21T12:40:08;11.90;99.90
54516;DHT22;40422;45.892;4.738;2023-11-21T12:42:38;12.20;99.90
54516;DHT22;40422;45.892;4.738;2023-11-21T12:45:08;12.50;99.90
54516;DHT22;40422;45.892;4.738;2023-11-21T12:47:35;12.50;99.90
54516;DHT22;40422;45.892;4.738;2023-11-21T12:50:02;12.20;99.90
54516;DHT22;40422;45.892;4.738;2023-11-21T12:52:28;12.00;99.90
54516;DHT22;40422;45.892;4.738;2023-11-21T12:54:54;11.80;99.90
54516;DHT22;40422;45.892;4.738;2023-11-21T12:57:25;11.70;99.90
54516;DHT22;40422;45.892;4.738;2023-11-21T12:59:57;11.50;99.90
54516;DHT22;40422;45.892;4.738;2023-11-21T13:02:26;11.50;99.90
54516;DHT22;40422;45.892;4.738;2023-11-21T13:04:52;11.60;99.90
54516;DHT22;40422;45.892;4.738;2023-11-21T13:07:19;11.60;99.90
54516;DHT22;40422;45.892;4.738;2023-11-21T13:09:46;11.60;99.90
54516;DHT22;40422;45.892;4.738;2023-11-21T13:12:12;11.50;99.90
54516;DHT22;40422;45.892;4.738;2023-11-21T13:14:40;11.50;99.90
54516;DHT22;40422;45.892;4.738;2023-11-21T13:17:05;11.50;99.90
54516;DHT22;40422;45.892;4.738;2023-11-21T13:19:31;11.50;99.90
54516;DHT22;40422;45.892;4.738;2023-11-21T13:21:57;11.70;99.90
54516;DHT22;40422;45.892;4.738;2023-11-21T13:24:24;11.90;99.90
54516;DHT22;40422;45.892;4.738;2023-11-21T13:26:50;12.10;99.90
54516;DHT22;40422;45.892;4.738;2023-11-21T13:29:16;12.10;99.90
54516;DHT22;40422;45.892;4.738;2023-11-21T13:31:42;12.10;99.90
54516;DHT22;40422;45.892;4.738;2023-11-21T13:34:08;12.00;99.90
54516;DHT22;40422;45.892;4.738;2023-11-21T13:36:34;12.00;99.90
54516;DHT22;40422;45.892;4.738;2023-11-21T13:39:01;11.90;99.90
54516;DHT22;40422;45.892;4.738;2023-11-21T13:41:33;11.90;99.90
54516;DHT22;40422;45.892;4.738;2023-11-21T13:43:59;11.90;99.90
54516;DHT22;40422;45.892;4.738;2023-11-21T13:46:43;11.80;99.90
54516;DHT22;40422;45.892;4.738;2023-11-21T13:49:11;11.70;99.90
54516;DHT22;40422;45.892;4.738;2023-11-21T13:51:37;11.70;99.90
54516;DHT22;40422;45.892;4.738;2023-11-21T13:54:11;11.70;99.90
54516;DHT22;40422;45.892;4.738;2023-11-21T13:56:37;11.70;99.90
54516;DHT22;40422;45.892;4.738;2023-11-21T13:59:04;11.80;99.90
54516;DHT22;40422;45.892;4.738;2023-11-21T14:01:42;11.80;99.90
54516;DHT22;40422;45.892;4.738;2023-11-21T14:04:21;11.90;99.90
54516;DHT22;40422;45.892;4.738;2023-11-21T14:07:04;11.90;99.90
54516;DHT22;40422;45.892;4.738;2023-11-21T14:09:39;11.90;99.90
54516;DHT22;40422;45.892;4.738;2023-11-21T14:12:09;12.00;99.90
54516;DHT22;40422;45.892;4.738;2023-11-21T14:14:35;12.00;99.90
54516;DHT22;40422;45.892;4.738;2023-11-21T14:17:01;12.00;99.90
54516;DHT22;40422;45.892;4.738;2023-11-21T14:19:32;12.00;99.90
54516;DHT22;40422;45.892;4.738;2023-11-21T14:21:59;12.10;99.90
54516;DHT22;40422;45.892;4.738;2023-11-21T14:24:25;12.00;99.90
54516;DHT22;40422;45.892;4.738;2023-11-21T14:26:51;11.90;99.90
54516;DHT22;40422;45.892;4.738;2023-11-21T14:29:17;11.80;99.90
54516;DHT22;40422;45.892;4.738;2023-11-21T14:31:46;11.80;99.90
54516;DHT22;40422;45.892;4.738;2023-11-21T14:34:11;11.60;99.90
54516;DHT22;40422;45.892;4.738;2023-11-21T14:36:39;11.60;99.90
54516;DHT22;40422;45.892;4.738;2023-11-21T14:39:06;11.60;99.90
54516;DHT22;40422;45.892;4.738;2023-11-21T14:41:45;11.50;99.90
54516;DHT22;40422;45.892;4.738;2023-11-21T14:44:11;11.50;99.90
54516;DHT22;40422;45.892;4.738;2023-11-21T14:46:38;11.40;99.90
54516;DHT22;40422;45.892;4.738;2023-11-21T14:49:05;11.40;99.90
54516;DHT22;40422;45.892;4.738;2023-11-21T14:51:52;11.40;99.90
54516;DHT22;40422;45.892;4.738;2023-11-21T14:54:29;11.30;99.90
54516;DHT22;40422;45.892;4.738;2023-11-21T14:57:04;11.20;99.90
54516;DHT22;40422;45.892;4.738;2023-11-21T14:59:32;11.20;99.90
54516;DHT22;40422;45.892;4.738;2023-11-21T15:01:58;11.30;99.90
54516;DHT22;40422;45.892;4.738;2023-11-21T15:04:25;11.40;99.90
54516;DHT22;40422;45.892;4.738;2023-11-21T15:07:05;11.50;99.90
54516;DHT22;40422;45.892;4.738;2023-11-21T15:09:31;11.60;99.90
54516;DHT22;40422;45.892;4.738;2023-11-21T15:11:57;11.60;99.90
54516;DHT22;40422;45.892;4.738;2023-11-21T15:14:29;11.50;99.90
54516;DHT22;40422;45.892;4.738;2023-11-21T15:16:58;11.60;99.90
54516;DHT22;40422;45.892;4.738;2023-11-21T15:19:26;11.60;99.90
54516;DHT22;40422;45.892;4.738;2023-11-21T15:21:53;11.70;99.90
54516;DHT22;40422;45.892;4.738;2023-11-21T15:24:19;11.60;99.90
54516;DHT22;40422;45.892;4.738;2023-11-21T15:26:44;11.60;99.90
54516;DHT22;40422;45.892;4.738;2023-11-21T15:29:10;11.50;99.90
54516;DHT22;40422;45.892;4.738;2023-11-21T15:31:36;11.40;99.90
54516;DHT22;40422;45.892;4.738;2023-11-21T15:34:03;11.30;99.90
54516;DHT22;40422;45.892;4.738;2023-11-21T15:36:31;11.30;99.90
54516;DHT22;40422;45.892;4.738;2023-11-21T15:38:56;11.20;99.90
54516;DHT22;40422;45.892;4.738;2023-11-21T15:41:22;11.10;99.90
54516;DHT22;40422;45.892;4.738;2023-11-21T15:43:48;11.10;99.90
54516;DHT22;40422;45.892;4.738;2023-11-21T15:46:15;11.00;99.90
54516;DHT22;40422;45.892;4.738;2023-11-21T15:48:41;11.00;99.90
54516;DHT22;40422;45.892;4.738;2023-11-21T15:51:15;11.00;99.90
54516;DHT22;40422;45.892;4.738;2023-11-21T15:53:42;10.90;99.90
54516;DHT22;40422;45.892;4.738;2023-11-21T15:56:08;10.90;99.90
54516;DHT22;40422;45.892;4.738;2023-11-21T15:58:38;10.90;99.90
54516;DHT22;40422;45.892;4.738;2023-11-21T16:01:05;10.80;99.90
54516;DHT22;40422;45.892;4.738;2023-11-21T16:03:33;10.80;99.90
54516;DHT22;40422;45.892;4.738;2023-11-21T16:05:59;10.80;99.90
54516;DHT22;40422;45.892;4.738;2023-11-21T16:08:25;10.60;99.90
54516;DHT22;40422;45.892;4.738;2023-11-21T16:10:51;10.60;99.90
54516;DHT22;40422;45.892;4.738;2023-11-21T16:13:16;10.60;99.90
54516;DHT22;40422;45.892;4.738;2023-11-21T16:15:43;10.50;99.90
54516;DHT22;40422;45.892;4.738;2023-11-21T16:18:09;10.50;99.90
54516;DHT22;40422;45.892;4.738;2023-11-21T16:20:35;10.40;99.90
54516;DHT22;40422;45.892;4.738;2023-11-21T16:23:00;10.30;99.90
54516;DHT22;40422;45.892;4.738;2023-11-21T16:25:26;10.30;99.90
54516;DHT22;40422;45.892;4.738;2023-11-21T16:27:51;10.20;99.90
54516;DHT22;40422;45.892;4.738;2023-11-21T16:30:17;10.20;99.90
54516;DHT22;40422;45.892;4.738;2023-11-21T16:32:44;10.20;99.90
54516;DHT22;40422;45.892;4.738;2023-11-21T16:35:09;10.10;99.90
54516;DHT22;40422;45.892;4.738;2023-11-21T16:37:37;10.10;99.90
54516;DHT22;40422;45.892;4.738;2023-11-21T16:40:03;10.10;99.90
54516;DHT22;40422;45.892;4.738;2023-11-21T16:42:32;10.10;99.90
54516;DHT22;40422;45.892;4.738;2023-11-21T16:44:59;10.10;99.90
54516;DHT22;40422;45.892;4.738;2023-11-21T16:47:25;10.10;99.90
54516;DHT22;40422;45.892;4.738;2023-11-21T16:49:51;10.10;99.90
54516;DHT22;40422;45.892;4.738;2023-11-21T16:52:17;10.10;99.90
54516;DHT22;40422;45.892;4.738;2023-11-21T16:54:47;10.10;99.90
54516;DHT22;40422;45.892;4.738;2023-11-21T16:57:14;10.10;99.90
54516;DHT22;40422;45.892;4.738;2023-11-21T16:59:40;10.10;99.90
54516;DHT22;40422;45.892;4.738;2023-11-21T17:02:07;10.00;99.90
54516;DHT22;40422;45.892;4.738;2023-11-21T17:04:34;10.00;99.90
54516;DHT22;40422;45.892;4.738;2023-11-21T17:07:02;9.90;99.90
54516;DHT22;40422;45.892;4.738;2023-11-21T17:09:28;9.80;99.90
54516;DHT22;40422;45.892;4.738;2023-11-21T17:11:54;9.80;99.90
54516;DHT22;40422;45.892;4.738;2023-11-21T17:14:23;9.70;99.90
54516;DHT22;40422;45.892;4.738;2023-11-21T17:16:48;9.70;99.90
54516;DHT22;40422;45.892;4.738;2023-11-21T17:19:14;9.70;99.90
54516;DHT22;40422;45.892;4.738;2023-11-21T17:21:40;9.60;99.90
54516;DHT22;40422;45.892;4.738;2023-11-21T17:24:06;9.60;99.90
54516;DHT22;40422;45.892;4.738;2023-11-21T17:26:34;9.50;99.90
54516;DHT22;40422;45.892;4.738;2023-11-21T17:29:00;9.50;99.90
54516;DHT22;40422;45.892;4.738;2023-11-21T17:31:27;9.50;99.90
54516;DHT22;40422;45.892;4.738;2023-11-21T17:33:52;9.50;99.90
54516;DHT22;40422;45.892;4.738;2023-11-21T17:36:20;9.50;99.90
54516;DHT22;40422;45.892;4.738;2023-11-21T17:38:46;9.50;99.90
54516;DHT22;40422;45.892;4.738;2023-11-21T17:41:11;9.40;99.90
54516;DHT22;40422;45.892;4.738;2023-11-21T17:43:38;9.40;99.90
54516;DHT22;40422;45.892;4.738;2023-11-21T17:46:07;9.40;99.90
54516;DHT22;40422;45.892;4.738;2023-11-21T17:48:33;9.40;99.90
54516;DHT22;40422;45.892;4.738;2023-11-21T17:51:00;9.40;99.90
54516;DHT22;40422;45.892;4.738;2023-11-21T17:53:25;9.40;99.90
54516;DHT22;40422;45.892;4.738;2023-11-21T17:55:51;9.40;99.90
54516;DHT22;40422;45.892;4.738;2023-11-21T17:58:17;9.40;99.90
54516;DHT22;40422;45.892;4.738;2023-11-21T18:00:42;9.40;99.90
54516;DHT22;40422;45.892;4.738;2023-11-21T18:03:10;9.40;99.90
54516;DHT22;40422;45.892;4.738;2023-11-21T18:05:37;9.40;99.90
54516;DHT22;40422;45.892;4.738;2023-11-21T18:08:03;9.40;99.90
54516;DHT22;40422;45.892;4.738;2023-11-21T18:10:29;9.50;99.90
54516;DHT22;40422;45.892;4.738;2023-11-21T18:12:54;9.50;99.90
54516;DHT22;40422;45.892;4.738;2023-11-21T18:15:20;9.50;99.90
54516;DHT22;40422;45.892;4.738;2023-11-21T18:17:45;9.50;99.90
54516;DHT22;40422;45.892;4.738;2023-11-21T18:20:14;9.50;99.90
54516;DHT22;40422;45.892;4.738;2023-11-21T18:22:40;9.50;99.90
54516;DHT22;40422;45.892;4.738;2023-11-21T18:25:06;9.40;99.90
54516;DHT22;40422;45.892;4.738;2023-11-21T18:27:31;9.50;99.90
54516;DHT22;40422;45.892;4.738;2023-11-21T18:29:57;9.50;99.90
54516;DHT22;40422;45.892;4.738;2023-11-21T18:32:24;9.50;99.90
54516;DHT22;40422;45.892;4.738;2023-11-21T18:34:51;9.50;99.90
54516;DHT22;40422;45.892;4.738;2023-11-21T18:37:17;9.50;99.90
54516;DHT22;40422;45.892;4.738;2023-11-21T18:39:46;9.60;99.90
54516;DHT22;40422;45.892;4.738;2023-11-21T18:42:12;9.50;99.90
54516;DHT22;40422;45.892;4.738;2023-11-21T18:44:41;9.50;99.90
54516;DHT22;40422;45.892;4.738;2023-11-21T18:47:07;9.50;99.90
54516;DHT22;40422;45.892;4.738;2023-11-21T18:49:37;9.60;99.90
54516;DHT22;40422;45.892;4.738;2023-11-21T18:52:02;9.60;99.90
54516;DHT22;40422;45.892;4.738;2023-11-21T18:54:29;9.60;99.90
54516;DHT22;40422;45.892;4.738;2023-11-21T18:56:54;9.60;99.90
54516;DHT22;40422;45.892;4.738;2023-11-21T18:59:20;9.60;99.90
54516;DHT22;40422;45.892;4.738;2023-11-21T19:01:46;9.60;99.90
54516;DHT22;40422;45.892;4.738;2023-11-21T19:04:12;9.60;99.90
54516;DHT22;40422;45.892;4.738;2023-11-21T19:06:39;9.60;99.90
54516;DHT22;40422;45.892;4.738;2023-11-21T19:09:05;9.70;99.90
54516;DHT22;40422;45.892;4.738;2023-11-21T19:11:30;9.70;99.90
54516;DHT22;40422;45.892;4.738;2023-11-21T19:13:56;9.70;99.90
54516;DHT22;40422;45.892;4.738;2023-11-21T19:16:22;9.70;99.90
54516;DHT22;40422;45.892;4.738;2023-11-21T19:18:47;9.70;99.90
54516;DHT22;40422;45.892;4.738;2023-11-21T19:21:16;9.70;99.90
54516;DHT22;40422;45.892;4.738;2023-11-21T19:23:42;9.70;99.90
54516;DHT22;40422;45.892;4.738;2023-11-21T19:26:09;9.80;99.90
54516;DHT22;40422;45.892;4.738;2023-11-21T19:28:34;9.80;99.90
54516;DHT22;40422;45.892;4.738;2023-11-21T19:31:03;9.80;99.90
54516;DHT22;40422;45.892;4.738;2023-11-21T19:33:30;9.80;99.90
54516;DHT22;40422;45.892;4.738;2023-11-21T19:35:55;9.80;99.90
54516;DHT22;40422;45.892;4.738;2023-11-21T19:38:21;9.80;99.90
54516;DHT22;40422;45.892;4.738;2023-11-21T19:40:47;9.80;99.90
54516;DHT22;40422;45.892;4.738;2023-11-21T19:43:12;9.90;99.90
54516;DHT22;40422;45.892;4.738;2023-11-21T19:45:38;9.90;99.90
54516;DHT22;40422;45.892;4.738;2023-11-21T19:48:05;9.90;99.90
54516;DHT22;40422;45.892;4.738;2023-11-21T19:50:34;9.90;99.90
54516;DHT22;40422;45.892;4.738;2023-11-21T19:52:59;9.80;99.90
54516;DHT22;40422;45.892;4.738;2023-11-21T19:55:25;9.80;99.90